createdAt,value
2022-10-07T00:01:13.200Z,11.55
2022-10-07T00:03:41.667Z,15.35
2022-10-07T00:06:18.203Z,11.85
2022-10-07T00:08:51.015Z,15.05
2022-10-07T00:11:21.292Z,20.33
2022-10-07T00:13:53.076Z,21.58
2022-10-07T00:16:26.842Z,13.88
2022-10-07T00:18:57.770Z,17.58
2022-10-07T00:21:26.913Z,17.25
2022-10-07T00:23:54.882Z,10.50
2022-10-07T00:26:24.440Z,13.55
2022-10-07T00:28:52.441Z,16.00
2022-10-07T00:31:38.662Z,20.85
2022-10-07T00:34:07.195Z,15.90
2022-10-07T00:36:36.949Z,16.83
2022-10-07T00:39:10.249Z,17.75
2022-10-07T00:41:58.599Z,12.80
2022-10-07T00:44:36.075Z,12.88
2022-10-07T00:47:17.405Z,13.93
2022-10-07T00:50:11.169Z,11.48
2022-10-07T00:52:42.242Z,15.23
2022-10-07T00:55:12.521Z,14.65
2022-10-07T00:57:40.873Z,12.38
2022-10-07T01:00:11.433Z,20.67
2022-10-07T01:02:40.891Z,20.52
2022-10-07T01:05:09.863Z,19.40
2022-10-07T01:07:39.277Z,22.15
2022-10-07T01:10:07.632Z,17.80
2022-10-07T01:12:54.942Z,22.65
2022-10-07T01:15:34.954Z,17.67
2022-10-07T01:18:07.381Z,17.13
2022-10-07T01:20:53.596Z,18.08
2022-10-07T01:23:41.479Z,21.25
2022-10-07T01:26:15.460Z,25.80
2022-10-07T01:28:49.338Z,25.98
2022-10-07T01:31:19.595Z,27.80
2022-10-07T01:33:47.723Z,25.35
2022-10-07T01:36:17.536Z,25.60
2022-10-07T01:38:50.322Z,24.98
2022-10-07T01:41:19.834Z,27.98
2022-10-07T01:43:48.311Z,25.95
2022-10-07T01:46:24.844Z,31.38
2022-10-07T01:48:54.548Z,29.60
2022-10-07T01:51:24.453Z,32.72
2022-10-07T01:54:05.881Z,29.92
2022-10-07T01:57:06.460Z,43.70
2022-10-07T01:59:53.359Z,28.98
2022-10-07T02:02:44.350Z,40.63
2022-10-07T02:05:15.803Z,33.88
2022-10-07T02:07:55.830Z,32.38
2022-10-07T02:10:34.512Z,33.70
2022-10-07T02:13:11.621Z,30.92
2022-10-07T02:15:45.852Z,35.67
2022-10-07T02:18:17.915Z,36.05
2022-10-07T02:20:47.726Z,26.88
2022-10-07T02:23:15.867Z,30.20
2022-10-07T02:25:47.104Z,33.25
2022-10-07T02:28:16.345Z,29.80
2022-10-07T02:30:45.175Z,28.55
2022-10-07T02:33:14.052Z,30.95
2022-10-07T02:35:51.504Z,31.25
2022-10-07T02:38:19.356Z,29.63
2022-10-07T02:41:15.157Z,39.60
2022-10-07T02:43:53.391Z,30.88
2022-10-07T02:46:32.224Z,24.80
2022-10-07T02:49:02.301Z,29.52
2022-10-07T02:51:59.740Z,24.05
2022-10-07T02:54:32.520Z,26.05
2022-10-07T02:57:00.920Z,23.20
2022-10-07T02:59:29.906Z,28.77
2022-10-07T03:02:01.068Z,22.95
2022-10-07T03:04:29.367Z,27.83
2022-10-07T03:06:59.022Z,24.90
2022-10-07T03:09:28.236Z,23.52
2022-10-07T03:11:58.207Z,30.48
2022-10-07T03:14:26.251Z,16.77
2022-10-07T03:16:55.189Z,24.60
2022-10-07T03:19:24.051Z,21.67
2022-10-07T03:21:57.059Z,17.30
2022-10-07T03:24:25.449Z,21.05
2022-10-07T03:26:54.255Z,22.50
2022-10-07T03:29:25.508Z,22.02
2022-10-07T03:31:56.321Z,21.05
2022-10-07T03:34:26.942Z,17.75
2022-10-07T03:36:55.522Z,21.33
2022-10-07T03:39:23.422Z,18.23
2022-10-07T03:41:52.252Z,18.17
2022-10-07T03:44:20.195Z,17.13
2022-10-07T03:46:51.741Z,12.23
2022-10-07T03:49:21.813Z,15.88
2022-10-07T03:51:50.654Z,16.02
2022-10-07T03:54:19.905Z,22.23
2022-10-07T03:56:48.973Z,22.10
2022-10-07T03:59:18.274Z,18.70
2022-10-07T04:01:46.915Z,17.60
2022-10-07T04:04:14.809Z,17.27
2022-10-07T04:06:43.672Z,15.85
2022-10-07T04:09:16.764Z,16.23
2022-10-07T04:11:45.026Z,18.15
2022-10-07T04:14:13.701Z,21.33
2022-10-07T04:16:44.601Z,22.08
2022-10-07T04:19:17.271Z,21.40
2022-10-07T04:21:47.528Z,20.40
2022-10-07T04:24:15.974Z,24.70
2022-10-07T04:26:45.580Z,17.95
2022-10-07T04:29:15.444Z,22.35
2022-10-07T04:31:44.432Z,16.20
2022-10-07T04:34:12.521Z,22.65
2022-10-07T04:36:42.272Z,13.57
2022-10-07T04:39:18.023Z,19.05
2022-10-07T04:41:56.677Z,16.13
2022-10-07T04:44:30.408Z,14.60
2022-10-07T04:47:05.591Z,16.80
2022-10-07T04:49:34.834Z,15.82
2022-10-07T04:52:05.915Z,14.50
2022-10-07T04:54:39.572Z,14.88
2022-10-07T04:57:10.117Z,14.15
2022-10-07T04:59:42.621Z,14.30
2022-10-07T05:02:14.504Z,15.68
2022-10-07T05:04:45.176Z,14.20
2022-10-07T05:07:14.419Z,14.02
2022-10-07T05:09:42.764Z,21.20
2022-10-07T05:12:10.700Z,17.52
2022-10-07T05:14:43.187Z,12.77
2022-10-07T05:17:14.367Z,14.45
2022-10-07T05:19:44.277Z,14.23
2022-10-07T05:22:15.586Z,13.93
2022-10-07T05:24:43.633Z,13.93
2022-10-07T05:27:14.625Z,10.70
2022-10-07T05:29:44.018Z,11.45
2022-10-07T05:32:12.071Z,15.32
2022-10-07T05:34:40.306Z,17.50
2022-10-07T05:37:08.124Z,16.48
2022-10-07T05:39:36.213Z,14.45
2022-10-07T05:42:13.898Z,10.60
2022-10-07T05:44:53.712Z,12.32
2022-10-07T05:47:21.831Z,13.00
2022-10-07T05:49:51.559Z,13.23
2022-10-07T05:52:21.413Z,9.73
2022-10-07T05:54:52.070Z,9.13
2022-10-07T05:57:20.698Z,14.25
2022-10-07T05:59:51.822Z,12.70
2022-10-07T06:02:20.907Z,12.38
2022-10-07T06:04:57.275Z,14.85
2022-10-07T06:07:29.334Z,11.25
2022-10-07T06:10:18.390Z,10.13
2022-10-07T06:13:05.493Z,10.02
2022-10-07T06:15:35.333Z,10.70
2022-10-07T06:18:05.325Z,12.07
2022-10-07T06:20:36.795Z,15.13
2022-10-07T06:23:11.423Z,10.55
2022-10-07T06:26:04.901Z,12.70
2022-10-07T06:28:39.048Z,18.33
2022-10-07T06:31:36.344Z,9.80
2022-10-07T06:34:05.770Z,9.27
2022-10-07T06:36:35.398Z,14.02
2022-10-07T06:39:04.720Z,12.63
2022-10-07T06:41:38.839Z,14.10
2022-10-07T06:44:28.839Z,12.40
2022-10-07T06:46:59.800Z,13.80
2022-10-07T06:49:30.341Z,11.90
2022-10-07T06:52:00.552Z,12.23
2022-10-07T06:54:31.499Z,12.85
2022-10-07T06:57:01.193Z,15.40
2022-10-07T06:59:35.890Z,13.55
2022-10-07T07:02:11.877Z,10.85
2022-10-07T07:04:41.542Z,13.95
2022-10-07T07:07:14.714Z,17.55
2022-10-07T07:09:45.015Z,18.15
2022-10-07T07:12:14.025Z,12.38
2022-10-07T07:14:45.575Z,13.38
2022-10-07T07:17:19.519Z,12.15
2022-10-07T07:19:50.524Z,14.68
2022-10-07T07:22:40.107Z,11.90
2022-10-07T07:25:12.118Z,12.48
2022-10-07T07:28:03.382Z,10.73
2022-10-07T07:30:31.728Z,11.20
2022-10-07T07:33:05.440Z,12.25
2022-10-07T07:35:54.073Z,14.45
2022-10-07T07:38:24.857Z,13.23
2022-10-07T07:40:55.366Z,9.75
2022-10-07T07:43:23.900Z,15.98
2022-10-07T07:45:51.896Z,10.48
2022-10-07T07:48:24.612Z,11.80
2022-10-07T07:50:56.349Z,11.20
2022-10-07T07:53:31.318Z,15.68
2022-10-07T07:56:05.433Z,12.48
2022-10-07T07:59:00.604Z,14.98
2022-10-07T08:01:36.556Z,14.65
2022-10-07T08:04:06.604Z,13.00
2022-10-07T08:06:39.819Z,9.85
2022-10-07T08:09:14.635Z,8.75
2022-10-07T08:11:53.575Z,12.52
2022-10-07T08:14:29.602Z,13.35
2022-10-07T08:17:00.549Z,12.07
2022-10-07T08:19:56.313Z,11.20
2022-10-07T08:22:27.983Z,11.50
2022-10-07T08:25:00.005Z,10.48
2022-10-07T08:27:34.825Z,9.85
2022-10-07T08:30:05.063Z,10.15
2022-10-07T08:32:46.578Z,9.90
2022-10-07T08:35:18.107Z,14.00
2022-10-07T08:37:46.108Z,9.90
2022-10-07T08:40:16.928Z,9.07
2022-10-07T08:42:51.381Z,11.77
2022-10-07T08:45:40.657Z,12.15
2022-10-07T08:48:15.022Z,8.15
2022-10-07T08:50:59.502Z,14.23
2022-10-07T08:53:30.874Z,10.80
2022-10-07T08:56:06.027Z,9.90
2022-10-07T08:58:44.537Z,11.43
2022-10-07T09:01:24.389Z,10.20
2022-10-07T09:04:19.002Z,11.05
2022-10-07T09:07:00.859Z,9.57
2022-10-07T09:10:04.101Z,7.57
2022-10-07T09:12:51.737Z,8.80
2022-10-07T09:15:50.314Z,9.98
2022-10-07T09:19:11.637Z,8.75
2022-10-07T09:22:30.887Z,7.95
2022-10-07T09:25:24.459Z,8.13
2022-10-07T09:27:54.758Z,9.10
2022-10-07T09:30:25.637Z,7.47
2022-10-07T09:32:55.769Z,10.63
2022-10-07T09:35:28.577Z,7.85
2022-10-07T09:38:04.162Z,7.93
2022-10-07T09:41:06.546Z,10.23
2022-10-07T09:43:39.246Z,7.18
2022-10-07T09:46:10.730Z,5.30
2022-10-07T09:48:40.296Z,6.70
2022-10-07T09:51:40.219Z,6.90
2022-10-07T09:54:40.222Z,7.65
2022-10-07T09:57:36.622Z,5.03
2022-10-07T10:00:14.622Z,6.03
2022-10-07T10:02:51.716Z,5.13
2022-10-07T10:05:26.101Z,6.80
2022-10-07T10:07:58.247Z,8.48
2022-10-07T10:10:36.224Z,8.20
2022-10-07T10:13:36.011Z,6.68
2022-10-07T10:16:06.176Z,7.30
2022-10-07T10:18:46.958Z,8.32
2022-10-07T10:21:43.677Z,7.13
2022-10-07T10:24:53.872Z,6.68
2022-10-07T10:27:26.492Z,10.57
2022-10-07T10:29:55.599Z,6.75
2022-10-07T10:32:44.684Z,5.28
2022-10-07T10:35:26.515Z,10.38
2022-10-07T10:38:36.653Z,10.38
2022-10-07T10:41:28.406Z,4.43
2022-10-07T10:44:24.948Z,5.95
2022-10-07T10:47:00.774Z,6.30
2022-10-07T10:49:50.507Z,4.57
2022-10-07T10:52:39.827Z,5.00
2022-10-07T10:55:38.379Z,5.03
2022-10-07T10:58:30.729Z,8.00
2022-10-07T11:01:37.612Z,3.50
2022-10-07T11:13:25.155Z,5.03
2022-10-07T11:16:13.445Z,4.20
2022-10-07T11:18:55.515Z,3.63
2022-10-07T11:22:00.072Z,5.97
2022-10-07T11:24:40.766Z,3.65
2022-10-07T11:27:21.165Z,8.75
2022-10-07T11:30:00.876Z,3.00
2022-10-07T11:32:36.054Z,3.05
2022-10-07T11:35:47.643Z,4.78
2022-10-07T11:38:40.147Z,2.72
2022-10-07T11:41:54.864Z,3.58
2022-10-07T11:44:36.048Z,4.32
2022-10-07T11:47:06.920Z,2.42
2022-10-07T11:50:30.635Z,2.20
2022-10-07T11:53:06.500Z,3.05
2022-10-07T11:56:01.737Z,4.40
2022-10-07T11:58:42.116Z,3.40
2022-10-07T12:01:31.173Z,4.45
2022-10-07T12:04:24.791Z,5.13
2022-10-07T12:07:35.637Z,3.50
2022-10-07T12:10:29.566Z,3.03
2022-10-07T12:13:04.415Z,4.32
2022-10-07T12:15:36.416Z,3.38
2022-10-07T12:18:07.437Z,4.80
2022-10-07T12:20:55.109Z,4.90
2022-10-07T12:23:32.343Z,4.43
2022-10-07T12:26:31.659Z,6.85
2022-10-07T12:28:59.910Z,3.72
2022-10-07T12:31:34.078Z,2.85
2022-10-07T12:34:06.272Z,5.13
2022-10-07T12:36:36.666Z,4.22
2022-10-07T12:39:12.090Z,4.95
2022-10-07T12:41:57.420Z,4.57
2022-10-07T12:44:35.015Z,4.35
2022-10-07T12:47:26.987Z,4.18
2022-10-07T12:50:00.955Z,6.97
2022-10-07T12:52:59.867Z,3.10
2022-10-07T12:55:32.379Z,3.35
2022-10-07T12:58:20.654Z,3.78
2022-10-07T13:01:24.837Z,5.47
2022-10-07T13:04:20.756Z,5.95
2022-10-07T13:07:25.312Z,4.75
2022-10-07T13:10:05.567Z,5.75
2022-10-07T13:12:57.098Z,4.55
2022-10-07T13:15:47.056Z,3.22
2022-10-07T13:18:26.640Z,6.22
2022-10-07T13:21:06.966Z,4.35
2022-10-07T13:23:55.808Z,4.53
2022-10-07T13:26:25.409Z,2.75
2022-10-07T13:28:55.774Z,4.20
2022-10-07T13:31:43.597Z,4.70
2022-10-07T13:34:18.194Z,5.00
2022-10-07T13:36:46.968Z,7.80
2022-10-07T13:39:25.392Z,5.45
2022-10-07T13:41:55.568Z,3.72
2022-10-07T13:44:26.356Z,4.40
2022-10-07T13:46:59.420Z,2.58
2022-10-07T13:49:33.653Z,6.63
2022-10-07T13:52:05.807Z,5.88
2022-10-07T13:54:55.627Z,2.95
2022-10-07T13:57:29.779Z,5.15
2022-10-07T14:00:00.630Z,5.47
2022-10-07T14:02:28.531Z,4.25
2022-10-07T14:05:05.966Z,3.95
2022-10-07T14:07:34.000Z,9.32
2022-10-07T14:10:11.669Z,7.03
2022-10-07T14:12:47.625Z,8.25
2022-10-07T14:15:17.305Z,4.13
2022-10-07T14:17:55.078Z,7.85
2022-10-07T14:20:33.652Z,4.72
2022-10-07T14:23:05.678Z,6.10
2022-10-07T14:25:48.872Z,5.22
2022-10-07T14:28:23.534Z,4.90
2022-10-07T14:31:25.082Z,6.28
2022-10-07T14:34:31.815Z,8.30
2022-10-07T14:37:18.200Z,5.18
2022-10-07T14:39:48.137Z,7.40
2022-10-07T14:42:22.038Z,4.97
2022-10-07T14:44:50.299Z,5.47
2022-10-07T14:47:24.417Z,4.20
2022-10-07T14:49:52.950Z,5.50
2022-10-07T14:52:44.767Z,4.65
2022-10-07T14:55:26.854Z,5.38
2022-10-07T14:57:55.409Z,10.27
2022-10-07T15:00:29.316Z,6.28
2022-10-07T15:02:58.332Z,6.85
2022-10-07T15:05:27.213Z,8.75
2022-10-07T15:07:55.163Z,7.13
2022-10-07T15:10:24.170Z,15.30
2022-10-07T15:12:52.494Z,12.80
2022-10-07T15:15:20.312Z,15.15
2022-10-07T15:17:49.143Z,16.05
2022-10-07T15:20:17.269Z,12.25
2022-10-07T15:22:46.136Z,16.80
2022-10-07T15:25:15.638Z,18.10
2022-10-07T15:27:44.280Z,16.65
2022-10-07T15:30:12.860Z,17.17
2022-10-07T15:32:43.660Z,15.70
2022-10-07T15:35:12.523Z,17.25
2022-10-07T15:37:45.995Z,11.73
2022-10-07T15:40:14.802Z,12.68
2022-10-07T15:42:44.801Z,15.30
2022-10-07T15:45:13.312Z,18.75
2022-10-07T15:47:41.529Z,14.35
2022-10-07T15:50:10.807Z,12.23
2022-10-07T15:52:39.278Z,12.30
2022-10-07T15:55:08.001Z,16.75
2022-10-07T15:58:08.732Z,12.35
2022-10-07T16:00:39.944Z,13.07
2022-10-07T16:03:08.076Z,12.57
2022-10-07T18:12:40.892Z,22.13
2022-10-07T18:21:21.010Z,27.17
2022-10-07T18:23:55.926Z,30.38
2022-10-07T18:26:26.514Z,33.72
2022-10-07T18:28:57.654Z,20.55
2022-10-07T18:31:28.928Z,29.92
2022-10-07T18:34:01.438Z,32.92
2022-10-07T18:36:29.564Z,23.80
2022-10-07T18:39:00.561Z,24.40
2022-10-07T18:41:48.467Z,22.55
2022-10-07T18:44:19.615Z,19.73
2022-10-07T18:51:50.739Z,18.80
2022-10-07T18:54:57.688Z,18.13
2022-10-07T18:57:30.938Z,22.60
2022-10-07T18:59:58.829Z,25.35
2022-10-07T19:02:27.226Z,22.67
2022-10-07T19:04:56.359Z,20.05
2022-10-07T19:07:26.170Z,21.90
2022-10-07T21:22:44.082Z,42.28
2022-10-07T21:25:12.938Z,27.75
2022-10-07T21:27:42.646Z,28.52
2022-10-07T21:30:11.076Z,19.95
2022-10-07T21:32:41.446Z,30.08
2022-10-07T21:35:09.761Z,23.15
2022-10-07T21:37:37.612Z,22.88
2022-10-07T21:40:32.156Z,19.90
2022-10-07T21:43:00.441Z,20.63
2022-10-07T21:45:28.825Z,20.55
2022-10-07T21:47:59.657Z,17.60
2022-10-07T21:50:27.561Z,17.42
2022-10-07T21:52:55.438Z,22.58
2022-10-07T21:55:23.630Z,13.52
2022-10-07T21:57:51.369Z,19.65
2022-10-07T22:00:23.287Z,18.85
2022-10-07T22:02:52.759Z,19.02
2022-10-07T22:05:20.555Z,18.95
2022-10-07T22:08:07.124Z,21.48
2022-10-07T22:13:04.243Z,17.35
2022-10-07T22:15:37.229Z,16.77
2022-10-07T22:18:06.217Z,14.35
2022-10-07T22:20:38.441Z,15.32
2022-10-07T22:23:08.727Z,21.73
2022-10-07T22:25:37.113Z,14.43
2022-10-07T22:28:06.817Z,18.15
2022-10-07T22:30:39.893Z,15.02
2022-10-07T22:33:15.414Z,12.10
2022-10-07T22:35:44.186Z,10.80
2022-10-07T22:38:14.205Z,20.75
2022-10-07T22:40:42.125Z,16.05
2022-10-07T22:43:10.744Z,16.95
2022-10-07T22:45:40.644Z,13.02
2022-10-07T22:48:08.551Z,23.42
2022-10-07T22:50:38.968Z,16.95
2022-10-07T22:53:06.977Z,23.80
2022-10-07T22:55:34.774Z,19.10
2022-10-07T22:58:04.600Z,20.08
2022-10-07T23:00:33.450Z,16.15
2022-10-07T23:03:01.325Z,24.23
2022-10-07T23:05:29.359Z,20.10
2022-10-07T23:07:57.207Z,17.23
2022-10-07T23:10:25.072Z,15.65
2022-10-07T23:12:54.010Z,11.27
2022-10-07T23:15:22.682Z,15.20
2022-10-07T23:17:51.013Z,17.45
2022-10-07T23:20:19.955Z,14.02
2022-10-07T23:22:49.238Z,13.73
2022-10-07T23:25:17.340Z,13.70
2022-10-07T23:27:45.368Z,12.60
2022-10-07T23:30:13.435Z,21.92
2022-10-07T23:32:46.295Z,13.60
2022-10-07T23:35:19.482Z,14.57
2022-10-07T23:37:47.327Z,16.25
2022-10-07T23:40:15.189Z,21.30
2022-10-07T23:42:43.924Z,21.02
2022-10-07T23:45:12.092Z,15.27
2022-10-07T23:47:40.343Z,24.48
2022-10-07T23:50:09.664Z,23.67
2022-10-07T23:52:40.855Z,19.50
2022-10-07T23:55:14.300Z,20.98
2022-10-07T23:57:42.510Z,18.08
